Time;durP1;ratioP1;P1;durP2;ratioP2;P2;SDS_P1;SDS_P2;PMS_P1;PMS_P2;Temp;Humidity;BMP_temperature;BMP_pressure;BME280_temperature;BME280_humidity;BME280_pressure;Samples;Min_cycle;Max_cycle;Signal;HPM_P1;HPM_P2
2021/08/27 06:45:15;;;;;;;3.00;1.80;;;16.10;99.90;;;;;;2201470;64;20146;31
2021/08/27 06:47:45;;;;;;;3.78;2.13;;;15.70;99.90;;;;;;2625881;47;21003;31
2021/08/27 06:50:14;;;;;;;2.55;2.28;;;15.50;99.90;;;;;;2586515;54;20030;31
2021/08/27 06:52:42;;;;;;;4.78;2.40;;;15.40;99.90;;;;;;2586447;54;20810;31
2021/08/27 06:55:13;;;;;;;4.50;2.40;;;15.40;99.90;;;;;;2586884;46;20888;31
2021/08/27 06:57:43;;;;;;;4.63;2.95;;;15.40;99.90;;;;;;2586932;46;20049;31
2021/08/27 07:00:19;;;;;;;4.85;2.30;;;15.40;99.90;;;;;;2586286;46;20772;31
2021/08/27 07:02:53;;;;;;;6.60;3.53;;;15.50;99.90;;;;;;2586392;46;20887;31
2021/08/27 07:05:31;;;;;;;4.38;3.10;;;15.40;99.90;;;;;;2586918;46;20773;31
2021/08/27 07:08:00;;;;;;;5.35;3.50;;;15.50;99.90;;;;;;2586986;46;20899;31
2021/08/27 07:10:31;;;;;;;5.85;3.50;;;15.50;99.90;;;;;;2586879;46;20785;31
2021/08/27 07:13:05;;;;;;;6.60;2.60;;;15.50;99.90;;;;;;2586970;46;20880;31
2021/08/27 07:15:39;;;;;;;2.70;2.30;;;15.50;99.90;;;;;;2586987;46;21085;31
2021/08/27 07:18:11;;;;;;;7.05;2.75;;;15.50;99.90;;;;;;2586958;46;20863;31
2021/08/27 07:20:42;;;;;;;5.70;2.00;;;15.60;99.90;;;;;;2586711;46;20938;31
2021/08/27 07:23:14;;;;;;;4.55;1.88;;;15.70;99.90;;;;;;2586536;54;20756;31
2021/08/27 07:25:43;;;;;;;2.83;1.60;;;15.80;99.90;;;;;;2586862;46;20042;31
2021/08/27 07:28:14;;;;;;;2.58;1.55;;;15.90;99.90;;;;;;2586821;46;20300;31
2021/08/27 07:30:44;;;;;;;2.40;1.20;;;16.00;99.90;;;;;;2586510;54;20944;31
2021/08/27 07:33:13;;;;;;;2.30;1.00;;;16.00;99.90;;;;;;2586877;46;20901;31
2021/08/27 07:35:41;;;;;;;3.37;1.03;;;16.00;99.90;;;;;;2586723;46;19934;31
2021/08/27 07:38:09;;;;;;;1.75;1.00;;;16.10;99.90;;;;;;2586038;54;20076;31
2021/08/27 07:40:38;;;;;;;2.85;0.80;;;16.10;99.90;;;;;;2586556;46;20983;31
2021/08/27 07:43:06;;;;;;;2.55;0.95;;;16.10;99.90;;;;;;2587022;46;20911;31
2021/08/27 07:45:35;;;;;;;1.30;0.70;;;16.10;99.90;;;;;;2586290;54;20908;31
2021/08/27 07:48:04;;;;;;;2.13;0.80;;;16.20;99.90;;;;;;2586717;46;20022;31
2021/08/27 07:50:33;;;;;;;2.50;0.60;;;16.20;99.90;;;;;;2586662;46;20027;31
2021/08/27 07:53:02;;;;;;;3.20;0.55;;;16.20;99.90;;;;;;2586699;46;20053;31
2021/08/27 07:55:31;;;;;;;3.10;0.80;;;16.20;99.90;;;;;;2586297;54;20027;31
2021/08/27 07:57:59;;;;;;;2.33;0.50;;;16.30;99.90;;;;;;2586557;46;20867;31
2021/08/27 08:00:28;;;;;;;1.20;0.60;;;16.40;99.90;;;;;;2586639;46;20254;31
2021/08/27 08:02:56;;;;;;;2.80;0.77;;;16.50;99.90;;;;;;2586525;46;20023;31
2021/08/27 08:05:26;;;;;;;1.53;1.03;;;16.50;99.90;;;;;;2586801;46;20874;31
2021/08/27 08:07:56;;;;;;;2.85;0.50;;;16.60;99.90;;;;;;2586925;46;20874;31
2021/08/27 08:10:25;;;;;;;4.70;0.65;;;16.70;99.90;;;;;;2586489;46;20026;31
2021/08/27 08:12:54;;;;;;;2.40;1.00;;;16.80;99.90;;;;;;2585976;46;20064;31
2021/08/27 08:15:26;;;;;;;1.60;0.50;;;16.80;99.90;;;;;;2586420;54;20970;31
2021/08/27 08:18:00;;;;;;;2.20;0.90;;;16.80;99.90;;;;;;2586231;54;20783;31
2021/08/27 08:20:28;;;;;;;2.95;0.65;;;17.00;99.90;;;;;;2586770;46;20054;31
2021/08/27 08:23:02;;;;;;;2.30;0.70;;;17.00;99.90;;;;;;2586655;46;20105;31
2021/08/27 08:25:31;;;;;;;1.65;0.70;;;17.10;99.90;;;;;;2586329;46;20026;31
2021/08/27 08:27:59;;;;;;;3.43;0.80;;;17.20;99.90;;;;;;2586554;46;20030;31
2021/08/27 08:30:27;;;;;;;2.20;0.63;;;17.20;99.90;;;;;;2586475;47;20030;31
2021/08/27 08:32:56;;;;;;;4.97;0.85;;;17.30;99.90;;;;;;2586598;46;20276;31
2021/08/27 08:35:27;;;;;;;1.63;0.70;;;17.30;99.90;;;;;;2586719;46;20858;31
2021/08/27 08:37:57;;;;;;;2.90;0.52;;;17.30;99.90;;;;;;2586613;46;20060;31
2021/08/27 08:40:26;;;;;;;3.07;0.60;;;17.40;99.90;;;;;;2586060;54;20904;31
2021/08/27 08:42:55;;;;;;;0.93;0.50;;;17.40;99.90;;;;;;2586182;54;20852;31
2021/08/27 08:45:23;;;;;;;0.60;0.30;;;17.40;99.90;;;;;;2586584;46;20038;31
2021/08/27 08:47:54;;;;;;;0.90;0.43;;;17.40;99.90;;;;;;2586333;46;20030;31
2021/08/27 08:50:23;;;;;;;0.75;0.40;;;17.40;99.90;;;;;;2586660;46;20895;31
2021/08/27 08:52:54;;;;;;;1.87;0.50;;;17.40;99.90;;;;;;2586344;46;20026;31
2021/08/27 08:55:22;;;;;;;1.67;0.57;;;17.50;99.90;;;;;;2586644;46;20751;31
2021/08/27 08:57:50;;;;;;;0.40;0.20;;;17.70;99.90;;;;;;2586483;46;20909;31
2021/08/27 09:00:18;;;;;;;2.50;0.30;;;17.80;99.90;;;;;;2586561;46;20105;31
2021/08/27 09:02:46;;;;;;;1.80;0.40;;;18.00;99.90;;;;;;2586536;46;20034;31
2021/08/27 09:05:17;;;;;;;0.80;0.30;;;18.10;99.90;;;;;;2586287;46;20246;31
2021/08/27 09:07:45;;;;;;;1.20;0.40;;;18.20;99.90;;;;;;2586359;46;20873;31
2021/08/27 09:10:18;;;;;;;2.30;0.40;;;18.40;99.90;;;;;;2585850;54;20053;31
2021/08/27 09:12:50;;;;;;;0.85;0.45;;;18.70;99.90;;;;;;2586001;54;21030;31
2021/08/27 09:15:20;;;;;;;1.15;0.45;;;19.10;99.90;;;;;;2586093;54;20921;31
2021/08/27 09:17:51;;;;;;;1.70;0.70;;;19.50;99.90;;;;;;2586125;46;20904;31
2021/08/27 09:20:25;;;;;;;1.57;0.50;;;19.80;99.90;;;;;;2586040;54;20027;31
2021/08/27 09:23:02;;;;;;;5.43;0.75;;;19.90;99.90;;;;;;2586311;47;20031;31
2021/08/27 09:25:32;;;;;;;0.80;0.50;;;19.90;99.90;;;;;;2586434;47;20026;31
2021/08/27 09:28:13;;;;;;;0.90;0.40;;;19.90;99.90;;;;;;2586292;47;20918;31
2021/08/27 09:30:47;;;;;;;1.40;0.50;;;19.80;99.90;;;;;;2585928;54;20119;31
2021/08/27 09:33:23;;;;;;;1.67;0.47;;;20.00;99.90;;;;;;2586490;47;20808;31
2021/08/27 09:36:02;;;;;;;1.50;0.30;;;20.10;99.90;;;;;;2586235;47;19935;31
2021/08/27 09:38:34;;;;;;;1.67;0.60;;;20.20;99.90;;;;;;2586172;54;21203;31
2021/08/27 09:41:07;;;;;;;0.73;0.35;;;20.40;99.90;;;;;;2586003;54;20826;31
2021/08/27 09:43:45;;;;;;;1.52;0.60;;;20.70;99.90;;;;;;2586450;47;20048;31
2021/08/27 09:46:45;;;;;;;0.95;0.50;;;20.80;99.90;;;;;;2586319;47;20852;31
2021/08/27 09:49:36;;;;;;;1.97;0.30;;;21.00;99.90;;;;;;2586077;47;20146;31
2021/08/27 09:52:10;;;;;;;2.50;0.60;;;21.30;99.90;;;;;;2585919;54;21068;31
2021/08/27 09:54:43;;;;;;;0.75;0.50;;;21.30;99.90;;;;;;2585831;54;20038;31
2021/08/27 09:57:12;;;;;;;1.10;0.50;;;21.30;99.90;;;;;;2585973;54;20053;31
2021/08/27 09:59:47;;;;;;;2.13;0.45;;;21.20;99.90;;;;;;2586442;47;20823;31
2021/08/27 10:02:25;;;;;;;2.90;0.50;;;20.90;99.90;;;;;;2586200;47;20026;31
2021/08/27 10:05:02;;;;;;;1.33;0.30;;;20.60;99.90;;;;;;2585913;54;20790;31
2021/08/27 10:07:35;;;;;;;1.10;0.60;;;20.40;99.90;;;;;;2586212;47;20891;31
2021/08/27 10:10:07;;;;;;;2.53;0.50;;;20.10;99.90;;;;;;2586229;47;20034;31
2021/08/27 10:12:38;;;;;;;5.45;0.60;;;19.80;99.90;;;;;;2586270;47;20085;31
2021/08/27 10:15:09;;;;;;;6.20;0.60;;;19.60;99.90;;;;;;2586261;47;20026;31
2021/08/27 10:17:42;;;;;;;4.32;0.73;;;19.40;99.90;;;;;;2586607;47;20080;31
2021/08/27 10:20:11;;;;;;;2.40;0.60;;;19.30;99.90;;;;;;2586890;46;20038;31
2021/08/27 10:22:42;;;;;;;0.85;0.45;;;19.10;99.90;;;;;;2586955;46;20975;31
2021/08/27 10:25:16;;;;;;;0.55;0.38;;;19.00;99.90;;;;;;2586904;46;20033;31
2021/08/27 10:27:47;;;;;;;1.10;0.70;;;18.90;99.90;;;;;;2586949;46;20655;31
2021/08/27 10:30:18;;;;;;;0.80;0.50;;;18.80;99.90;;;;;;2587060;46;20026;31
2021/08/27 10:32:49;;;;;;;1.05;0.70;;;18.70;99.90;;;;;;2587038;46;21091;31
2021/08/27 10:35:24;;;;;;;2.38;0.70;;;18.60;99.90;;;;;;2586983;46;20038;31
2021/08/27 10:37:55;;;;;;;1.85;0.40;;;18.60;99.90;;;;;;2587301;46;20848;31
2021/08/27 10:40:27;;;;;;;1.70;0.50;;;18.50;99.90;;;;;;2587113;46;20027;31
2021/08/27 10:43:00;;;;;;;1.67;0.50;;;18.40;99.90;;;;;;2587036;46;20076;31
2021/08/27 10:45:43;;;;;;;1.17;0.47;;;18.30;99.90;;;;;;2586945;46;20258;31
2021/08/27 10:48:18;;;;;;;0.90;0.55;;;18.30;99.90;;;;;;2586864;46;20871;31
2021/08/27 10:50:57;;;;;;;3.47;0.80;;;18.20;99.90;;;;;;2586749;46;20065;31
2021/08/27 10:53:32;;;;;;;2.75;0.55;;;18.20;99.90;;;;;;2586760;46;20058;31
2021/08/27 10:56:03;;;;;;;;;;;18.20;99.90;;;;;;2587174;46;20728;31
2021/08/27 10:58:48;;;;;;;1.75;0.90;;;18.20;99.90;;;;;;2587162;46;19938;31
2021/08/27 11:01:33;;;;;;;1.20;0.70;;;18.30;99.90;;;;;;2586574;46;20120;31
2021/08/27 11:04:16;;;;;;;0.60;0.40;;;18.40;99.90;;;;;;2587121;46;20101;31
2021/08/27 11:06:50;;;;;;;1.52;0.60;;;18.50;99.90;;;;;;2587050;46;20828;31
2021/08/27 11:09:25;;;;;;;0.50;0.40;;;18.70;99.90;;;;;;2586060;54;20858;31
2021/08/27 11:12:15;;;;;;;2.90;0.80;;;18.90;99.90;;;;;;2586479;54;20030;31
2021/08/27 11:14:46;;;;;;;1.73;0.73;;;19.10;99.90;;;;;;2586812;46;20950;31
2021/08/27 11:17:16;;;;;;;2.10;0.40;;;19.40;99.90;;;;;;2586686;46;20027;31
2021/08/27 11:19:55;;;;;;;1.30;0.65;;;19.60;99.90;;;;;;2586288;54;20826;31
2021/08/27 11:22:30;;;;;;;0.70;0.30;;;19.80;99.90;;;;;;2586971;46;20034;31
2021/08/27 11:25:12;;;;;;;1.00;0.30;;;20.00;99.90;;;;;;2586741;46;20100;31
2021/08/27 11:28:08;;;;;;;1.65;0.60;;;20.20;99.90;;;;;;2586200;54;20068;31
2021/08/27 11:30:45;;;;;;;1.00;0.30;;;20.40;99.90;;;;;;2586355;54;20765;31
2021/08/27 11:33:40;;;;;;;0.30;0.20;;;20.50;99.90;;;;;;2586792;46;20027;31
2021/08/27 11:36:12;;;;;;;0.60;0.20;;;20.50;99.90;;;;;;2586712;46;20093;31
2021/08/27 11:38:40;;;;;;;1.10;0.20;;;20.70;99.90;;;;;;2586160;46;20026;31
2021/08/27 11:41:11;;;;;;;0.60;0.30;;;20.70;99.90;;;;;;2586077;46;20902;31
2021/08/27 11:43:46;;;;;;;0.17;0.10;;;20.70;99.90;;;;;;2586578;46;20938;31
2021/08/27 11:46:18;;;;;;;0.25;0.20;;;20.80;99.90;;;;;;2586817;46;20081;31
2021/08/27 11:48:56;;;;;;;0.88;0.20;;;20.90;99.90;;;;;;2586286;54;20022;31
2021/08/27 11:51:29;;;;;;;0.50;0.20;;;20.90;99.90;;;;;;2586613;46;20028;31
2021/08/27 11:53:58;;;;;;;0.33;0.20;;;21.00;99.90;;;;;;2586652;46;20027;31
2021/08/27 11:56:29;;;;;;;0.57;0.30;;;21.10;99.90;;;;;;2586654;46;20848;31
2021/08/27 11:59:00;;;;;;;0.40;0.20;;;21.10;99.90;;;;;;2586715;46;20034;31
2021/08/27 12:01:31;;;;;;;2.15;0.40;;;21.10;99.90;;;;;;2586714;46;20030;31
2021/08/27 12:04:02;;;;;;;1.08;0.28;;;21.10;99.90;;;;;;2586841;46;20030;31
2021/08/27 12:06:32;;;;;;;0.40;0.10;;;21.20;99.90;;;;;;2586828;46;20030;31
2021/08/27 12:09:12;;;;;;;1.10;0.10;;;21.20;99.90;;;;;;2586830;46;20754;31
2021/08/27 12:11:43;;;;;;;1.08;0.20;;;21.20;99.90;;;;;;2586780;46;20852;31
2021/08/27 12:14:13;;;;;;;0.10;0.08;;;21.30;99.90;;;;;;2586789;46;20778;31
2021/08/27 12:16:45;;;;;;;0.10;0.00;;;21.30;99.90;;;;;;2586329;46;20060;31
2021/08/27 12:19:23;;;;;;;0.32;0.20;;;21.30;99.90;;;;;;2586564;54;20122;31
2021/08/27 12:22:00;;;;;;;0.17;0.17;;;21.20;99.90;;;;;;2586307;54;20879;31
2021/08/27 12:24:34;;;;;;;0.45;0.10;;;21.30;99.90;;;;;;2586213;54;20034;31
2021/08/27 12:27:04;;;;;;;1.87;0.10;;;21.40;99.90;;;;;;2586736;46;20029;31
2021/08/27 12:29:35;;;;;;;0.40;0.10;;;21.40;99.90;;;;;;2586623;46;20872;31
2021/08/27 12:32:17;;;;;;;0.15;0.10;;;21.50;99.90;;;;;;2586707;46;20034;31
2021/08/27 12:34:47;;;;;;;1.23;0.40;;;21.50;99.90;;;;;;2586604;46;20862;31
2021/08/27 12:37:16;;;;;;;1.20;0.25;;;21.50;99.90;;;;;;2586120;54;20022;31
2021/08/27 12:39:44;;;;;;;0.40;0.10;;;21.40;99.90;;;;;;2585960;54;20809;31
2021/08/27 12:42:13;;;;;;;0.30;0.20;;;21.30;99.90;;;;;;2586386;46;20921;31
2021/08/27 12:45:11;;;;;;;0.60;0.30;;;21.20;99.90;;;;;;2586504;46;20023;31
2021/08/27 12:47:41;;;;;;;0.83;0.40;;;21.10;99.90;;;;;;2586362;46;20065;31
2021/08/27 12:50:16;;;;;;;0.95;0.20;;;21.00;99.90;;;;;;2586760;46;21228;31
2021/08/27 12:53:00;;;;;;;0.30;0.20;;;20.80;99.90;;;;;;2586589;46;20764;31
2021/08/27 12:55:31;;;;;;;0.40;0.20;;;20.80;99.90;;;;;;2586437;46;20027;31
2021/08/27 14:53:38;;;;;;;1.90;0.30;;;20.80;99.90;;;;;;2643917;53;21222;31
2021/08/27 14:56:31;;;;;;;0.75;0.25;;;19.60;99.90;;;;;;2603474;54;19934;31
2021/08/27 14:59:16;;;;;;;1.05;0.30;;;19.30;99.90;;;;;;2604021;46;20104;31
2021/08/27 15:05:05;;;;;;;1.15;0.20;;;19.10;99.90;;;;;;2611390;54;20242;31
2021/08/27 15:10:46;;;;;;;0.55;0.30;;;18.90;99.90;;;;;;2603440;54;20046;31
2021/08/27 15:13:18;;;;;;;0.80;0.30;;;18.90;99.90;;;;;;2604074;46;20030;31
2021/08/27 15:15:50;;;;;;;1.05;0.20;;;18.90;99.90;;;;;;2603939;46;20049;31
2021/08/27 15:18:24;;;;;;;0.45;0.30;;;18.80;99.90;;;;;;2604068;46;20038;31
2021/08/27 15:20:56;;;;;;;0.98;0.20;;;18.80;99.90;;;;;;2603645;46;20072;31
2021/08/27 15:23:27;;;;;;;1.33;0.30;;;18.80;99.90;;;;;;2603369;46;20914;31
2021/08/27 15:25:58;;;;;;;2.13;0.30;;;18.80;99.90;;;;;;2702284;39;21376;31
2021/08/27 15:28:29;;;;;;;1.05;0.25;;;18.80;99.90;;;;;;2603797;46;20950;31
2021/08/27 15:31:01;;;;;;;1.95;0.25;;;18.70;99.90;;;;;;2604001;46;20029;31
2021/08/27 15:33:32;;;;;;;0.88;0.25;;;18.70;99.90;;;;;;2603825;46;20031;31
2021/08/27 15:36:06;;;;;;;0.70;0.25;;;18.60;99.90;;;;;;2603875;46;20042;31
2021/08/27 15:38:37;;;;;;;0.60;0.30;;;18.60;99.90;;;;;;2603741;46;20094;31
2021/08/27 15:41:11;;;;;;;1.00;0.20;;;18.50;99.90;;;;;;2603338;54;20037;31
2021/08/27 15:43:43;;;;;;;4.70;0.32;;;18.50;99.90;;;;;;2603848;46;20034;31
2021/08/27 15:46:14;;;;;;;0.60;0.30;;;18.50;99.90;;;;;;2603782;46;20038;31
2021/08/27 15:48:45;;;;;;;1.08;0.30;;;18.40;99.90;;;;;;2603861;46;20904;31
2021/08/27 15:51:16;;;;;;;1.40;0.30;;;18.40;99.90;;;;;;2603920;46;20058;31
2021/08/27 15:53:48;;;;;;;1.53;0.50;;;18.30;99.90;;;;;;2603469;54;20093;31
2021/08/27 15:56:20;;;;;;;0.57;0.32;;;18.20;99.90;;;;;;2603472;54;20057;31
2021/08/27 15:58:52;;;;;;;2.83;0.50;;;18.20;99.90;;;;;;2603811;46;19942;31
2021/08/27 16:01:23;;;;;;;1.17;0.40;;;18.20;99.90;;;;;;2603747;46;19934;31
2021/08/27 16:03:55;;;;;;;0.60;0.30;;;18.10;99.90;;;;;;2603396;54;20128;31
2021/08/27 16:06:28;;;;;;;1.20;0.32;;;18.10;99.90;;;;;;2603746;46;20033;31
2021/08/27 16:08:59;;;;;;;2.43;0.20;;;18.10;99.90;;;;;;2603876;46;20141;31
2021/08/27 16:11:31;;;;;;;0.63;0.30;;;18.10;99.90;;;;;;2603581;46;19934;31
2021/08/27 16:14:03;;;;;;;1.70;0.60;;;18.10;99.90;;;;;;2603250;46;20050;31
2021/08/27 16:16:34;;;;;;;2.65;0.30;;;18.10;99.90;;;;;;2603760;46;20069;31
2021/08/27 16:19:05;;;;;;;1.45;0.60;;;18.10;99.90;;;;;;2603774;46;20057;31
2021/08/27 16:21:37;;;;;;;4.22;0.50;;;18.00;99.90;;;;;;2603198;54;20064;31
2021/08/27 16:24:08;;;;;;;0.50;0.20;;;18.00;99.90;;;;;;2603741;46;20045;31
2021/08/27 16:26:39;;;;;;;1.60;0.25;;;17.90;99.90;;;;;;2603368;54;20046;31
2021/08/27 16:29:16;;;;;;;0.60;0.32;;;17.80;99.90;;;;;;2603509;47;20123;31
2021/08/27 16:31:47;;;;;;;1.70;0.30;;;17.80;99.90;;;;;;2603690;46;20053;31
2021/08/27 16:34:18;;;;;;;1.50;0.30;;;17.70;99.90;;;;;;2773681;31;21282;31
2021/08/27 16:36:49;;;;;;;1.10;0.43;;;17.60;99.90;;;;;;2603607;46;20052;31
2021/08/27 16:39:20;;;;;;;1.67;0.28;;;17.60;99.90;;;;;;2603372;54;20887;31
2021/08/27 16:41:52;;;;;;;1.42;0.28;;;17.50;99.90;;;;;;2603613;46;20030;31
2021/08/27 16:44:23;;;;;;;2.50;0.20;;;17.50;99.90;;;;;;2603231;54;19947;31
2021/08/27 16:46:54;;;;;;;3.05;0.20;;;17.40;99.90;;;;;;2603503;47;20097;31
2021/08/27 16:49:25;;;;;;;0.50;0.20;;;17.30;99.90;;;;;;2603549;47;20023;31
2021/08/27 16:51:56;;;;;;;0.50;0.20;;;17.20;99.90;;;;;;2603585;47;19935;31
2021/08/27 16:54:27;;;;;;;0.98;0.17;;;17.20;99.90;;;;;;2603739;47;20050;31
2021/08/27 16:56:58;;;;;;;0.90;0.30;;;17.20;99.90;;;;;;2603452;47;20087;31
2021/08/27 16:59:29;;;;;;;0.60;0.30;;;17.10;99.90;;;;;;2603293;47;20035;31
2021/08/27 17:02:00;;;;;;;1.45;0.40;;;17.10;99.90;;;;;;2603357;47;20897;31
2021/08/27 17:04:31;;;;;;;1.27;0.22;;;17.00;99.90;;;;;;2603158;54;20026;31
2021/08/27 17:07:02;;;;;;;1.83;0.30;;;17.00;99.90;;;;;;2603296;54;20027;31
2021/08/27 17:09:33;;;;;;;2.08;0.32;;;17.00;99.90;;;;;;2603246;54;20030;31
2021/08/27 17:12:04;;;;;;;0.80;0.25;;;16.90;99.90;;;;;;2603572;47;20022;31
2021/08/27 17:14:35;;;;;;;1.15;0.30;;;16.80;99.90;;;;;;2603643;47;20035;31
2021/08/27 17:17:04;;;;;;;2.40;0.40;;;16.80;99.90;;;;;;2701685;39;21078;31
2021/08/27 17:19:35;;;;;;;12.15;1.60;;;16.80;99.90;;;;;;2603320;47;20022;31
2021/08/27 17:22:06;;;;;;;17.08;3.60;;;16.80;99.90;;;;;;2603446;47;20042;31
2021/08/27 17:24:37;;;;;;;14.75;2.95;;;16.90;99.90;;;;;;2603598;47;20872;31
2021/08/27 17:27:08;;;;;;;1.95;0.20;;;17.00;99.90;;;;;;2603469;47;20031;31
2021/08/27 17:29:39;;;;;;;0.70;0.20;;;17.00;99.90;;;;;;2603296;47;20030;31
2021/08/27 17:32:10;;;;;;;1.00;0.30;;;16.90;99.90;;;;;;2701990;39;21181;31
2021/08/27 17:34:41;;;;;;;1.13;0.43;;;16.90;99.90;;;;;;2603579;47;20869;31
2021/08/27 17:37:12;;;;;;;2.15;0.40;;;16.80;99.90;;;;;;2603528;47;20085;31
2021/08/27 17:39:43;;;;;;;0.60;0.30;;;16.80;99.90;;;;;;2603397;46;20034;31
2021/08/27 17:42:14;;;;;;;3.20;0.75;;;16.70;99.90;;;;;;2603472;47;20105;31
2021/08/27 17:44:45;;;;;;;1.33;0.30;;;16.70;99.90;;;;;;2603517;47;20026;31
2021/08/27 17:47:20;;;;;;;0.70;0.50;;;16.60;99.90;;;;;;2604074;47;20029;31
2021/08/27 17:49:54;;;;;;;4.32;0.70;;;16.50;99.90;;;;;;2604276;46;20895;31
2021/08/27 17:52:25;;;;;;;2.15;0.80;;;16.40;99.90;;;;;;2604262;46;20083;31
2021/08/27 17:54:56;;;;;;;2.30;0.65;;;16.30;99.90;;;;;;2604097;46;20156;31
2021/08/27 17:57:27;;;;;;;2.40;0.43;;;16.30;99.90;;;;;;2604115;46;20065;31
2021/08/27 17:59:58;;;;;;;1.30;0.75;;;16.20;99.90;;;;;;2604321;46;20089;31
2021/08/27 18:02:29;;;;;;;1.35;0.70;;;16.20;99.90;;;;;;2603686;54;25052;31
2021/08/27 18:05:00;;;;;;;1.23;0.60;;;16.10;99.90;;;;;;2604300;46;20959;31
2021/08/27 18:07:31;;;;;;;0.60;0.53;;;16.10;99.90;;;;;;2604237;46;20085;31
2021/08/27 18:10:03;;;;;;;1.40;0.80;;;16.10;99.90;;;;;;2603771;54;19985;31
2021/08/27 18:12:34;;;;;;;3.15;0.80;;;16.10;99.90;;;;;;2604289;46;20867;31
2021/08/27 18:15:05;;;;;;;4.03;1.10;;;16.00;99.90;;;;;;2604059;46;20030;31
2021/08/27 18:17:36;;;;;;;5.95;1.48;;;16.00;99.90;;;;;;2604170;46;20023;31
2021/08/27 18:20:10;;;;;;;3.50;1.10;;;15.90;99.90;;;;;;2603717;54;19997;31
2021/08/27 18:22:42;;;;;;;4.07;1.00;;;15.90;99.90;;;;;;2604148;46;20082;31
2021/08/27 18:25:13;;;;;;;3.85;0.70;;;15.90;99.90;;;;;;2604241;46;20857;31
2021/08/27 18:27:44;;;;;;;4.93;1.00;;;15.80;99.90;;;;;;2603819;54;20089;31
2021/08/27 18:30:15;;;;;;;3.72;0.90;;;15.90;99.90;;;;;;2604188;46;20030;31
2021/08/27 18:32:46;;;;;;;3.60;1.10;;;15.70;99.90;;;;;;2603629;46;20042;31
2021/08/27 18:35:19;;;;;;;4.15;0.90;;;15.60;99.90;;;;;;2603822;46;20034;31
2021/08/27 18:37:50;;;;;;;6.72;1.27;;;15.60;99.90;;;;;;2603708;54;20085;31
2021/08/27 18:40:21;;;;;;;3.05;1.20;;;15.60;99.90;;;;;;2604074;46;20946;31
2021/08/27 18:42:52;;;;;;;2.30;1.00;;;15.60;99.90;;;;;;2604060;46;20083;31
2021/08/27 18:45:23;;;;;;;2.35;1.10;;;15.60;99.90;;;;;;2604172;46;20869;31
2021/08/27 18:47:54;;;;;;;3.03;0.88;;;15.60;99.90;;;;;;2604175;46;20110;31
2021/08/27 18:50:25;;;;;;;4.30;1.30;;;15.50;99.90;;;;;;2604080;46;20053;31
2021/08/27 18:52:57;;;;;;;1.93;1.13;;;15.50;99.90;;;;;;2603474;54;20810;31
2021/08/27 18:55:28;;;;;;;2.35;1.15;;;15.50;99.90;;;;;;2604061;46;20030;31
2021/08/27 18:57:59;;;;;;;7.70;3.45;;;15.50;99.90;;;;;;2604021;46;20034;31
2021/08/27 19:00:34;;;;;;;7.82;3.55;;;15.50;99.90;;;;;;2603983;46;20026;31
2021/08/27 19:03:05;;;;;;;6.30;3.92;;;15.50;99.90;;;;;;2603653;54;20030;31
2021/08/27 19:05:37;;;;;;;11.57;6.40;;;15.40;99.90;;;;;;2604130;46;20053;31
2021/08/27 19:08:08;;;;;;;7.93;4.43;;;15.40;99.90;;;;;;2603878;46;20031;31
2021/08/27 19:10:39;;;;;;;11.05;4.38;;;15.30;99.90;;;;;;2603853;46;19931;31
2021/08/27 19:13:11;;;;;;;8.52;3.30;;;15.30;99.90;;;;;;2604004;46;20033;31
2021/08/27 19:15:43;;;;;;;4.90;2.85;;;15.20;99.90;;;;;;2604026;46;20072;31
2021/08/27 19:18:14;;;;;;;4.67;2.20;;;15.20;99.90;;;;;;2603554;54;20089;31
2021/08/27 19:20:46;;;;;;;5.18;2.15;;;15.10;99.90;;;;;;2603948;46;20924;31
2021/08/27 19:23:20;;;;;;;3.28;1.65;;;15.10;99.90;;;;;;2774132;31;21150;31
2021/08/27 19:25:52;;;;;;;4.28;2.08;;;15.10;99.90;;;;;;2603498;54;20026;31
2021/08/27 19:28:23;;;;;;;3.35;1.73;;;15.20;99.90;;;;;;2603930;46;20089;31
2021/08/27 19:30:55;;;;;;;6.45;2.95;;;15.30;99.90;;;;;;2603409;54;20049;31
2021/08/27 19:33:27;;;;;;;5.28;2.03;;;15.30;99.90;;;;;;2603275;46;20081;31
2021/08/27 19:36:01;;;;;;;2.40;1.25;;;15.30;99.90;;;;;;2603462;46;20866;31
2021/08/27 19:38:34;;;;;;;3.30;1.67;;;15.20;99.90;;;;;;2603171;46;20050;31
2021/08/27 19:41:08;;;;;;;2.53;1.70;;;15.20;99.90;;;;;;2603005;54;20042;31
2021/08/27 19:43:39;;;;;;;3.27;1.70;;;15.10;99.90;;;;;;2602905;54;20026;31
2021/08/27 19:46:12;;;;;;;4.57;1.90;;;15.10;99.90;;;;;;2603362;46;20031;31
2021/08/27 19:48:44;;;;;;;2.35;1.60;;;15.00;99.90;;;;;;2604127;46;20037;31
2021/08/27 19:51:16;;;;;;;4.53;1.90;;;15.00;99.90;;;;;;2603579;54;20037;31
2021/08/27 19:53:47;;;;;;;5.05;2.15;;;15.00;99.90;;;;;;2603417;46;20001;31
2021/08/27 19:56:25;;;;;;;3.38;2.00;;;15.00;99.90;;;;;;2603803;46;25059;31
2021/08/27 19:58:59;;;;;;;2.65;1.80;;;15.00;99.90;;;;;;2603673;54;20145;31
2021/08/27 20:01:31;;;;;;;4.35;1.73;;;14.90;99.90;;;;;;2603760;46;20118;31
2021/08/27 20:04:04;;;;;;;5.80;1.40;;;14.90;99.90;;;;;;2603850;46;20050;31
2021/08/27 20:06:36;;;;;;;3.45;1.65;;;14.90;99.90;;;;;;2603609;54;20030;31
2021/08/27 20:09:07;;;;;;;5.40;1.40;;;14.90;99.90;;;;;;2603747;46;20931;31
2021/08/27 20:11:41;;;;;;;2.72;1.27;;;14.80;99.90;;;;;;2603119;46;20026;31
2021/08/27 20:14:15;;;;;;;3.60;1.60;;;14.90;99.90;;;;;;2602913;54;20030;31
2021/08/27 20:16:47;;;;;;;6.05;1.45;;;14.80;99.90;;;;;;2603734;46;20033;31
2021/08/27 20:19:19;;;;;;;3.47;1.50;;;14.80;99.90;;;;;;2603788;46;20026;31
2021/08/27 20:21:51;;;;;;;4.40;1.70;;;14.80;99.90;;;;;;2603688;46;21113;31
2021/08/27 20:24:22;;;;;;;4.77;1.97;;;14.80;99.90;;;;;;2603282;54;20047;31
2021/08/27 20:26:55;;;;;;;3.45;2.15;;;14.80;99.90;;;;;;2603831;46;20034;31
2021/08/27 20:29:30;;;;;;;5.70;2.00;;;14.80;99.90;;;;;;2603338;54;20034;31
2021/08/27 20:32:03;;;;;;;3.05;1.48;;;14.80;99.90;;;;;;2603502;54;20042;31
2021/08/27 20:34:34;;;;;;;6.90;2.35;;;14.80;99.90;;;;;;2603154;46;20076;31
2021/08/27 20:37:06;;;;;;;3.63;1.98;;;14.80;99.90;;;;;;2602648;54;21006;31
2021/08/27 20:39:38;;;;;;;4.40;1.70;;;14.80;99.90;;;;;;2602744;54;20888;31
2021/08/27 20:42:10;;;;;;;4.25;2.15;;;14.80;99.90;;;;;;2603128;47;20030;31
2021/08/27 20:44:42;;;;;;;3.08;2.08;;;14.70;99.90;;;;;;2602666;54;20889;31
2021/08/27 20:47:13;;;;;;;6.18;1.45;;;14.80;99.90;;;;;;2603018;47;20034;31
2021/08/27 20:49:44;;;;;;;6.30;1.35;;;14.80;99.90;;;;;;2603177;46;20115;31
2021/08/27 20:52:17;;;;;;;3.50;1.77;;;14.80;99.90;;;;;;2603010;54;20101;31
2021/08/27 20:54:50;;;;;;;2.50;1.85;;;14.80;99.90;;;;;;2603656;46;20037;31
2021/08/27 20:57:22;;;;;;;4.70;1.83;;;14.80;99.90;;;;;;2603270;54;20023;31
2021/08/27 20:59:55;;;;;;;3.20;1.60;;;14.80;99.90;;;;;;2603565;47;20030;31
2021/08/27 21:02:28;;;;;;;6.67;2.53;;;14.90;99.90;;;;;;2603442;47;20050;31
2021/08/27 21:05:00;;;;;;;4.40;1.80;;;14.90;99.90;;;;;;2603574;47;20034;31
2021/08/27 21:07:32;;;;;;;4.40;2.40;;;14.90;99.90;;;;;;2702323;39;21048;31
2021/08/27 21:10:08;;;;;;;3.65;1.90;;;14.90;99.90;;;;;;2603652;47;20120;31
2021/08/27 21:12:41;;;;;;;5.20;2.65;;;14.90;99.90;;;;;;2603584;47;20038;31
2021/08/27 21:15:12;;;;;;;6.65;3.15;;;14.90;99.90;;;;;;2603700;47;20030;31
2021/08/27 21:17:45;;;;;;;4.35;2.45;;;14.90;99.90;;;;;;2602999;54;20045;31
2021/08/27 21:20:19;;;;;;;5.05;2.45;;;14.80;99.90;;;;;;2602972;47;20039;31
2021/08/27 21:22:51;;;;;;;5.03;2.13;;;14.80;99.90;;;;;;2603901;54;20082;31
2021/08/27 21:25:23;;;;;;;6.07;2.65;;;14.90;99.90;;;;;;2604374;46;20026;31
2021/08/27 21:27:55;;;;;;;5.67;2.70;;;14.80;99.90;;;;;;2603357;54;20046;31
2021/08/27 21:30:27;;;;;;;5.03;2.97;;;14.80;99.90;;;;;;2603991;54;20146;31
2021/08/27 21:32:58;;;;;;;6.80;2.60;;;14.80;99.90;;;;;;2603924;54;20037;31
2021/08/27 21:35:32;;;;;;;3.55;1.95;;;14.80;99.90;;;;;;2604446;46;20057;31
2021/08/27 21:38:04;;;;;;;3.53;2.00;;;14.80;99.90;;;;;;2604331;46;20035;31
2021/08/27 21:40:36;;;;;;;7.17;2.20;;;14.80;99.90;;;;;;2604394;46;20039;31
2021/08/27 21:43:08;;;;;;;4.90;2.27;;;14.80;99.90;;;;;;2603766;54;19982;31
2021/08/27 21:45:39;;;;;;;2.87;1.80;;;14.70;99.90;;;;;;2603977;54;20860;31
2021/08/27 21:48:13;;;;;;;3.10;2.00;;;14.70;99.90;;;;;;2604201;46;20034;31
2021/08/27 21:50:46;;;;;;;3.35;2.30;;;14.70;99.90;;;;;;2604429;46;20112;31
2021/08/27 21:53:18;;;;;;;10.25;2.60;;;14.60;99.90;;;;;;2604234;46;20009;31
2021/08/27 21:55:49;;;;;;;8.05;2.65;;;14.60;99.90;;;;;;2604260;46;20093;31
2021/08/27 21:58:21;;;;;;;4.85;2.17;;;14.50;99.90;;;;;;2604384;46;20879;31
2021/08/27 22:00:53;;;;;;;8.48;2.60;;;14.50;99.90;;;;;;2604215;46;20034;31
2021/08/27 22:03:25;;;;;;;7.30;3.25;;;14.40;99.90;;;;;;2603722;54;20033;31
2021/08/27 22:05:59;;;;;;;6.95;2.75;;;14.40;99.90;;;;;;2604338;46;20914;31
2021/08/27 22:08:35;;;;;;;8.35;2.65;;;14.30;99.90;;;;;;2604244;46;20035;31
2021/08/27 22:11:07;;;;;;;17.23;5.97;;;14.40;99.90;;;;;;2604072;46;20026;31